Hauptseite
METAR-TAF:

METAR-TAF

Flughäfen :

Lleida-Alguaire

Lleida, Spanien

Breite: 41-43-40N, Länge: 000-32-09E, Höhe: 350 m

Beobachtung

Neuester Wetterbericht von vor 9 Stunden und 15 Minuten, um 06:00 UTC
Wind 1 kt aus unterschiedlichen Richtungen
Temperatur 11°C
Luftfeuchtigkeit 100%
Luftdruck 1014 hPa
Sichtweite: 9000 m

METAR: LEDA 160600Z AUTO VRB01KT 9000 NSC 11/11 Q1014

Zeit: 17:15 (15:15 UTC)


TAF: fehlend

Wetterbeobachtungen und Prognosen von mehr als 4000 Flughäfen (METAR und TAF Bericht).

Die verfügbaren Stationen werden durch gelbe und rote Markierungen auf der Karte dargestellt.

Führen Sie die Maus auf sie, um den Namen der Station zu sehen.

Darauf klicken, um die Beobachtung von Wetterbeobachtungen und Prognosen zu sehen.

Um die Karte zu ändern : klicken Sie auf den grünen Tasten mit einem schwarzen Kreuz Zum Vergrößern, auf den grünen Button mit einem Gedankenstrich zu verkleinern, oder auf die grünen Pfeile für benachbarte Karten.


METAR-TAF: